sensor_id;sensor_type;location;lat;lon;timestamp;temperature;humidity
20091;DHT22;10205;49.678;6.560;2022-09-25T00:00:51;18.20;59.00
20091;DHT22;10205;49.678;6.560;2022-09-25T00:03:21;18.20;58.20
20091;DHT22;10205;49.678;6.560;2022-09-25T00:05:50;18.20;58.40
20091;DHT22;10205;49.678;6.560;2022-09-25T00:08:18;18.20;59.10
20091;DHT22;10205;49.678;6.560;2022-09-25T00:10:47;18.20;58.40
20091;DHT22;10205;49.678;6.560;2022-09-25T00:13:17;18.20;58.00
20091;DHT22;10205;49.678;6.560;2022-09-25T00:15:48;18.20;57.90
20091;DHT22;10205;49.678;6.560;2022-09-25T00:18:16;18.20;58.10
20091;DHT22;10205;49.678;6.560;2022-09-25T00:21:05;18.20;58.00
20091;DHT22;10205;49.678;6.560;2022-09-25T00:23:33;18.20;57.90
20091;DHT22;10205;49.678;6.560;2022-09-25T00:26:00;18.20;58.20
20091;DHT22;10205;49.678;6.560;2022-09-25T00:28:27;18.20;58.00
20091;DHT22;10205;49.678;6.560;2022-09-25T00:30:57;18.10;57.90
20091;DHT22;10205;49.678;6.560;2022-09-25T00:33:25;18.10;58.40
20091;DHT22;10205;49.678;6.560;2022-09-25T00:35:53;18.10;59.10
20091;DHT22;10205;49.678;6.560;2022-09-25T00:38:20;18.10;59.70
20091;DHT22;10205;49.678;6.560;2022-09-25T00:40:47;18.10;58.40
20091;DHT22;10205;49.678;6.560;2022-09-25T00:43:15;18.10;58.20
20091;DHT22;10205;49.678;6.560;2022-09-25T00:46:06;18.10;58.10
20091;DHT22;10205;49.678;6.560;2022-09-25T00:48:44;18.10;58.10
20091;DHT22;10205;49.678;6.560;2022-09-25T00:51:18;18.10;58.00
20091;DHT22;10205;49.678;6.560;2022-09-25T00:53:55;18.10;58.10
20091;DHT22;10205;49.678;6.560;2022-09-25T00:56:28;18.10;58.00
20091;DHT22;10205;49.678;6.560;2022-09-25T00:59:01;18.00;58.20
20091;DHT22;10205;49.678;6.560;2022-09-25T01:01:30;18.10;58.50
20091;DHT22;10205;49.678;6.560;2022-09-25T01:03:58;18.10;58.50
20091;DHT22;10205;49.678;6.560;2022-09-25T01:06:26;18.10;58.20
20091;DHT22;10205;49.678;6.560;2022-09-25T01:08:54;18.10;59.00
20091;DHT22;10205;49.678;6.560;2022-09-25T01:11:22;18.10;58.60
20091;DHT22;10205;49.678;6.560;2022-09-25T01:13:53;18.10;58.30
20091;DHT22;10205;49.678;6.560;2022-09-25T01:16:28;18.00;58.30
20091;DHT22;10205;49.678;6.560;2022-09-25T01:19:14;18.00;58.20
20091;DHT22;10205;49.678;6.560;2022-09-25T01:21:53;18.00;58.20
20091;DHT22;10205;49.678;6.560;2022-09-25T01:24:48;18.00;58.10
20091;DHT22;10205;49.678;6.560;2022-09-25T01:27:38;18.00;58.20
20091;DHT22;10205;49.678;6.560;2022-09-25T01:30:16;18.00;58.00
20091;DHT22;10205;49.678;6.560;2022-09-25T01:32:56;18.00;58.00
20091;DHT22;10205;49.678;6.560;2022-09-25T01:35:33;18.10;58.20
20091;DHT22;10205;49.678;6.560;2022-09-25T01:38:15;18.00;58.10
20091;DHT22;10205;49.678;6.560;2022-09-25T01:40:54;18.00;58.50
20091;DHT22;10205;49.678;6.560;2022-09-25T01:43:33;18.00;58.40
20091;DHT22;10205;49.678;6.560;2022-09-25T01:46:08;18.00;58.30
20091;DHT22;10205;49.678;6.560;2022-09-25T01:48:42;18.00;58.10
20091;DHT22;10205;49.678;6.560;2022-09-25T01:51:15;18.00;58.70
20091;DHT22;10205;49.678;6.560;2022-09-25T01:53:51;18.00;58.10
20091;DHT22;10205;49.678;6.560;2022-09-25T01:56:23;18.00;58.40
20091;DHT22;10205;49.678;6.560;2022-09-25T01:58:59;18.00;58.60
20091;DHT22;10205;49.678;6.560;2022-09-25T02:01:35;18.00;59.20
20091;DHT22;10205;49.678;6.560;2022-09-25T02:04:09;18.00;59.20
20091;DHT22;10205;49.678;6.560;2022-09-25T02:06:42;17.90;58.70
20091;DHT22;10205;49.678;6.560;2022-09-25T02:09:16;17.90;59.10
20091;DHT22;10205;49.678;6.560;2022-09-25T02:11:50;17.90;58.60
20091;DHT22;10205;49.678;6.560;2022-09-25T02:14:24;17.90;58.40
20091;DHT22;10205;49.678;6.560;2022-09-25T02:16:57;17.90;58.40
20091;DHT22;10205;49.678;6.560;2022-09-25T02:19:26;17.90;58.30
20091;DHT22;10205;49.678;6.560;2022-09-25T02:22:15;17.90;58.30
20091;DHT22;10205;49.678;6.560;2022-09-25T02:24:48;17.90;58.30
20091;DHT22;10205;49.678;6.560;2022-09-25T02:27:20;17.90;59.10
20091;DHT22;10205;49.678;6.560;2022-09-25T02:29:48;17.90;59.10
20091;DHT22;10205;49.678;6.560;2022-09-25T02:32:20;17.90;58.60
20091;DHT22;10205;49.678;6.560;2022-09-25T02:34:51;17.90;58.40
20091;DHT22;10205;49.678;6.560;2022-09-25T02:37:18;17.90;59.10
20091;DHT22;10205;49.678;6.560;2022-09-25T02:39:48;17.90;59.40
20091;DHT22;10205;49.678;6.560;2022-09-25T02:42:27;17.90;60.20
20091;DHT22;10205;49.678;6.560;2022-09-25T02:45:09;17.90;60.50
20091;DHT22;10205;49.678;6.560;2022-09-25T02:47:56;17.90;60.10
20091;DHT22;10205;49.678;6.560;2022-09-25T02:50:36;17.90;59.20
20091;DHT22;10205;49.678;6.560;2022-09-25T02:53:14;17.80;59.30
20091;DHT22;10205;49.678;6.560;2022-09-25T02:55:49;17.80;60.30
20091;DHT22;10205;49.678;6.560;2022-09-25T02:58:23;17.80;60.00
20091;DHT22;10205;49.678;6.560;2022-09-25T03:00:54;17.80;60.30
20091;DHT22;10205;49.678;6.560;2022-09-25T03:03:25;17.80;60.50
20091;DHT22;10205;49.678;6.560;2022-09-25T03:05:55;17.80;60.30
20091;DHT22;10205;49.678;6.560;2022-09-25T03:08:25;17.70;60.50
20091;DHT22;10205;49.678;6.560;2022-09-25T03:11:08;17.70;60.40
20091;DHT22;10205;49.678;6.560;2022-09-25T03:13:38;17.70;60.30
20091;DHT22;10205;49.678;6.560;2022-09-25T03:16:09;17.60;59.90
20091;DHT22;10205;49.678;6.560;2022-09-25T03:18:41;17.60;60.10
20091;DHT22;10205;49.678;6.560;2022-09-25T03:21:09;17.60;60.30
20091;DHT22;10205;49.678;6.560;2022-09-25T03:23:36;17.60;61.70
20091;DHT22;10205;49.678;6.560;2022-09-25T03:26:03;17.60;60.00
20091;DHT22;10205;49.678;6.560;2022-09-25T03:28:32;17.60;59.70
20091;DHT22;10205;49.678;6.560;2022-09-25T03:31:02;17.60;60.30
20091;DHT22;10205;49.678;6.560;2022-09-25T03:33:34;17.60;61.70
20091;DHT22;10205;49.678;6.560;2022-09-25T03:36:06;17.50;60.40
20091;DHT22;10205;49.678;6.560;2022-09-25T03:38:36;17.50;60.80
20091;DHT22;10205;49.678;6.560;2022-09-25T03:41:04;17.50;60.00
20091;DHT22;10205;49.678;6.560;2022-09-25T03:43:33;17.60;60.00
20091;DHT22;10205;49.678;6.560;2022-09-25T03:46:01;17.50;60.50
20091;DHT22;10205;49.678;6.560;2022-09-25T03:48:28;17.50;59.60
20091;DHT22;10205;49.678;6.560;2022-09-25T03:50:55;17.50;59.50
20091;DHT22;10205;49.678;6.560;2022-09-25T03:53:24;17.50;59.50
20091;DHT22;10205;49.678;6.560;2022-09-25T03:55:51;17.50;60.70
20091;DHT22;10205;49.678;6.560;2022-09-25T03:58:19;17.50;59.90
20091;DHT22;10205;49.678;6.560;2022-09-25T04:00:46;17.50;59.60
20091;DHT22;10205;49.678;6.560;2022-09-25T04:03:14;17.50;59.60
20091;DHT22;10205;49.678;6.560;2022-09-25T04:05:42;17.60;59.80
20091;DHT22;10205;49.678;6.560;2022-09-25T04:08:10;17.60;60.00
20091;DHT22;10205;49.678;6.560;2022-09-25T04:10:39;17.60;59.60
20091;DHT22;10205;49.678;6.560;2022-09-25T04:13:07;17.60;59.60
20091;DHT22;10205;49.678;6.560;2022-09-25T04:15:37;17.60;61.20
20091;DHT22;10205;49.678;6.560;2022-09-25T04:18:05;17.60;60.30
20091;DHT22;10205;49.678;6.560;2022-09-25T04:20:33;17.50;59.70
20091;DHT22;10205;49.678;6.560;2022-09-25T04:23:00;17.60;59.70
20091;DHT22;10205;49.678;6.560;2022-09-25T04:25:27;17.60;59.80
20091;DHT22;10205;49.678;6.560;2022-09-25T04:27:56;17.60;59.60
20091;DHT22;10205;49.678;6.560;2022-09-25T04:30:25;17.60;59.60
20091;DHT22;10205;49.678;6.560;2022-09-25T04:32:54;17.50;59.60
20091;DHT22;10205;49.678;6.560;2022-09-25T04:35:39;17.60;60.80
20091;DHT22;10205;49.678;6.560;2022-09-25T04:38:07;17.60;60.00
20091;DHT22;10205;49.678;6.560;2022-09-25T04:40:34;17.60;60.80
20091;DHT22;10205;49.678;6.560;2022-09-25T04:43:05;17.50;60.40
20091;DHT22;10205;49.678;6.560;2022-09-25T04:45:34;17.50;60.00
20091;DHT22;10205;49.678;6.560;2022-09-25T04:48:04;17.50;59.70
20091;DHT22;10205;49.678;6.560;2022-09-25T04:50:32;17.50;60.30
20091;DHT22;10205;49.678;6.560;2022-09-25T04:53:01;17.50;60.70
20091;DHT22;10205;49.678;6.560;2022-09-25T04:55:28;17.50;60.10
20091;DHT22;10205;49.678;6.560;2022-09-25T04:57:57;17.50;60.60
20091;DHT22;10205;49.678;6.560;2022-09-25T05:00:28;17.50;60.10
20091;DHT22;10205;49.678;6.560;2022-09-25T05:02:57;17.50;60.00
20091;DHT22;10205;49.678;6.560;2022-09-25T05:05:24;17.50;60.20
20091;DHT22;10205;49.678;6.560;2022-09-25T05:07:53;17.50;60.00
20091;DHT22;10205;49.678;6.560;2022-09-25T05:10:22;17.50;61.00
20091;DHT22;10205;49.678;6.560;2022-09-25T05:12:53;17.50;62.00
20091;DHT22;10205;49.678;6.560;2022-09-25T05:15:21;17.50;60.90
20091;DHT22;10205;49.678;6.560;2022-09-25T05:17:50;17.50;60.30
20091;DHT22;10205;49.678;6.560;2022-09-25T05:20:25;17.50;60.30
20091;DHT22;10205;49.678;6.560;2022-09-25T05:22:53;17.50;60.30
20091;DHT22;10205;49.678;6.560;2022-09-25T05:25:21;17.50;60.40
20091;DHT22;10205;49.678;6.560;2022-09-25T05:27:50;17.50;60.00
20091;DHT22;10205;49.678;6.560;2022-09-25T05:30:18;17.50;59.90
20091;DHT22;10205;49.678;6.560;2022-09-25T05:32:47;17.50;59.80
20091;DHT22;10205;49.678;6.560;2022-09-25T05:35:17;17.50;59.80
20091;DHT22;10205;49.678;6.560;2022-09-25T05:37:45;17.50;60.30
20091;DHT22;10205;49.678;6.560;2022-09-25T05:40:13;17.50;60.00
20091;DHT22;10205;49.678;6.560;2022-09-25T05:42:41;17.50;61.20
20091;DHT22;10205;49.678;6.560;2022-09-25T05:45:09;17.50;60.40
20091;DHT22;10205;49.678;6.560;2022-09-25T05:47:37;17.50;60.70
20091;DHT22;10205;49.678;6.560;2022-09-25T05:50:05;17.50;60.70
20091;DHT22;10205;49.678;6.560;2022-09-25T05:52:36;17.50;60.30
20091;DHT22;10205;49.678;6.560;2022-09-25T05:55:05;17.40;61.20
20091;DHT22;10205;49.678;6.560;2022-09-25T05:57:34;17.50;60.90
20091;DHT22;10205;49.678;6.560;2022-09-25T06:00:03;17.40;60.10
20091;DHT22;10205;49.678;6.560;2022-09-25T06:02:32;17.40;60.50
20091;DHT22;10205;49.678;6.560;2022-09-25T06:04:59;17.40;60.90
20091;DHT22;10205;49.678;6.560;2022-09-25T06:07:26;17.40;62.40
20091;DHT22;10205;49.678;6.560;2022-09-25T06:09:55;17.40;61.20
20091;DHT22;10205;49.678;6.560;2022-09-25T06:12:22;17.40;62.00
20091;DHT22;10205;49.678;6.560;2022-09-25T06:14:49;17.40;60.90
20091;DHT22;10205;49.678;6.560;2022-09-25T06:17:17;17.40;61.10
20091;DHT22;10205;49.678;6.560;2022-09-25T06:19:44;17.40;60.60
20091;DHT22;10205;49.678;6.560;2022-09-25T06:22:12;17.40;60.40
20091;DHT22;10205;49.678;6.560;2022-09-25T06:24:39;17.40;60.30
20091;DHT22;10205;49.678;6.560;2022-09-25T06:27:08;17.40;61.60
20091;DHT22;10205;49.678;6.560;2022-09-25T06:29:35;17.40;61.70
20091;DHT22;10205;49.678;6.560;2022-09-25T06:32:02;17.40;60.70
20091;DHT22;10205;49.678;6.560;2022-09-25T06:34:30;17.40;60.40
20091;DHT22;10205;49.678;6.560;2022-09-25T06:36:59;17.40;60.30
20091;DHT22;10205;49.678;6.560;2022-09-25T06:39:26;17.40;61.10
20091;DHT22;10205;49.678;6.560;2022-09-25T06:41:57;17.40;60.10
20091;DHT22;10205;49.678;6.560;2022-09-25T06:44:26;17.40;60.00
20091;DHT22;10205;49.678;6.560;2022-09-25T06:46:53;17.40;60.30
20091;DHT22;10205;49.678;6.560;2022-09-25T06:49:20;17.40;60.50
20091;DHT22;10205;49.678;6.560;2022-09-25T06:51:47;17.40;60.10
20091;DHT22;10205;49.678;6.560;2022-09-25T06:54:16;17.40;60.10
20091;DHT22;10205;49.678;6.560;2022-09-25T06:56:43;17.40;60.00
20091;DHT22;10205;49.678;6.560;2022-09-25T06:59:14;17.40;60.00
20091;DHT22;10205;49.678;6.560;2022-09-25T07:01:43;17.40;60.50
20091;DHT22;10205;49.678;6.560;2022-09-25T07:04:10;17.40;61.30
20091;DHT22;10205;49.678;6.560;2022-09-25T07:06:36;17.40;62.40
20091;DHT22;10205;49.678;6.560;2022-09-25T07:09:03;17.40;62.00
20091;DHT22;10205;49.678;6.560;2022-09-25T07:11:31;17.40;61.90
20091;DHT22;10205;49.678;6.560;2022-09-25T07:13:58;17.40;63.20
20091;DHT22;10205;49.678;6.560;2022-09-25T07:16:26;17.40;63.70
20091;DHT22;10205;49.678;6.560;2022-09-25T07:18:58;17.40;63.20
20091;DHT22;10205;49.678;6.560;2022-09-25T07:21:27;17.40;63.70
20091;DHT22;10205;49.678;6.560;2022-09-25T07:23:57;17.40;63.40
20091;DHT22;10205;49.678;6.560;2022-09-25T07:26:25;17.40;64.10
20091;DHT22;10205;49.678;6.560;2022-09-25T07:28:55;17.40;64.40
20091;DHT22;10205;49.678;6.560;2022-09-25T07:31:26;17.40;63.80
20091;DHT22;10205;49.678;6.560;2022-09-25T07:33:54;17.40;64.10
20091;DHT22;10205;49.678;6.560;2022-09-25T07:36:24;17.40;63.60
20091;DHT22;10205;49.678;6.560;2022-09-25T07:38:52;17.40;64.20
20091;DHT22;10205;49.678;6.560;2022-09-25T07:41:20;17.40;64.10
20091;DHT22;10205;49.678;6.560;2022-09-25T07:43:50;17.40;64.20
20091;DHT22;10205;49.678;6.560;2022-09-25T07:46:18;17.40;63.70
20091;DHT22;10205;49.678;6.560;2022-09-25T07:48:47;17.40;64.20
20091;DHT22;10205;49.678;6.560;2022-09-25T07:51:15;17.40;63.60
20091;DHT22;10205;49.678;6.560;2022-09-25T07:53:44;17.40;63.40
20091;DHT22;10205;49.678;6.560;2022-09-25T07:56:11;17.40;63.80
20091;DHT22;10205;49.678;6.560;2022-09-25T07:58:39;17.40;64.10
20091;DHT22;10205;49.678;6.560;2022-09-25T08:01:09;17.40;64.10
20091;DHT22;10205;49.678;6.560;2022-09-25T08:03:38;17.40;63.60
20091;DHT22;10205;49.678;6.560;2022-09-25T08:06:07;17.40;64.10
20091;DHT22;10205;49.678;6.560;2022-09-25T08:08:36;17.40;64.40
20091;DHT22;10205;49.678;6.560;2022-09-25T08:11:07;17.40;63.80
20091;DHT22;10205;49.678;6.560;2022-09-25T08:13:36;17.40;64.10
20091;DHT22;10205;49.678;6.560;2022-09-25T08:16:06;17.50;63.70
20091;DHT22;10205;49.678;6.560;2022-09-25T08:18:38;17.50;64.20
20091;DHT22;10205;49.678;6.560;2022-09-25T08:21:07;17.50;64.30
20091;DHT22;10205;49.678;6.560;2022-09-25T08:23:35;17.50;64.60
20091;DHT22;10205;49.678;6.560;2022-09-25T08:26:02;17.60;65.00
20091;DHT22;10205;49.678;6.560;2022-09-25T08:28:31;17.60;64.50
20091;DHT22;10205;49.678;6.560;2022-09-25T08:30:58;17.60;64.50
20091;DHT22;10205;49.678;6.560;2022-09-25T08:33:29;17.60;64.50
20091;DHT22;10205;49.678;6.560;2022-09-25T08:35:58;17.60;64.50
20091;DHT22;10205;49.678;6.560;2022-09-25T08:38:27;17.70;64.90
20091;DHT22;10205;49.678;6.560;2022-09-25T08:41:00;17.70;64.30
20091;DHT22;10205;49.678;6.560;2022-09-25T08:43:32;17.70;64.20
20091;DHT22;10205;49.678;6.560;2022-09-25T08:46:15;17.70;65.00
20091;DHT22;10205;49.678;6.560;2022-09-25T08:49:03;17.70;65.00
20091;DHT22;10205;49.678;6.560;2022-09-25T08:51:34;17.80;65.30
20091;DHT22;10205;49.678;6.560;2022-09-25T08:54:04;17.80;65.10
20091;DHT22;10205;49.678;6.560;2022-09-25T08:56:33;17.80;65.30
20091;DHT22;10205;49.678;6.560;2022-09-25T08:59:05;17.70;65.40
20091;DHT22;10205;49.678;6.560;2022-09-25T09:01:50;17.70;65.40
20091;DHT22;10205;49.678;6.560;2022-09-25T09:04:24;17.70;64.70
20091;DHT22;10205;49.678;6.560;2022-09-25T09:07:03;17.70;64.50
20091;DHT22;10205;49.678;6.560;2022-09-25T09:09:39;17.70;65.30
20091;DHT22;10205;49.678;6.560;2022-09-25T09:12:12;17.70;65.10
20091;DHT22;10205;49.678;6.560;2022-09-25T09:14:49;17.70;64.80
20091;DHT22;10205;49.678;6.560;2022-09-25T09:17:23;17.70;65.40
20091;DHT22;10205;49.678;6.560;2022-09-25T09:19:57;17.70;64.90
20091;DHT22;10205;49.678;6.560;2022-09-25T09:22:31;17.70;65.30
20091;DHT22;10205;49.678;6.560;2022-09-25T09:25:12;17.70;65.30
20091;DHT22;10205;49.678;6.560;2022-09-25T09:28:11;17.70;65.00
20091;DHT22;10205;49.678;6.560;2022-09-25T09:31:00;17.70;64.70
20091;DHT22;10205;49.678;6.560;2022-09-25T09:33:42;17.80;64.80
20091;DHT22;10205;49.678;6.560;2022-09-25T09:36:19;17.80;64.90
20091;DHT22;10205;49.678;6.560;2022-09-25T09:39:02;17.80;64.60
20091;DHT22;10205;49.678;6.560;2022-09-25T09:41:46;17.80;64.50
20091;DHT22;10205;49.678;6.560;2022-09-25T09:44:42;17.90;64.40
20091;DHT22;10205;49.678;6.560;2022-09-25T09:47:33;17.90;65.00
20091;DHT22;10205;49.678;6.560;2022-09-25T09:50:19;17.90;64.40
20091;DHT22;10205;49.678;6.560;2022-09-25T09:52:54;17.90;64.30
20091;DHT22;10205;49.678;6.560;2022-09-25T09:55:32;17.90;64.20
20091;DHT22;10205;49.678;6.560;2022-09-25T09:58:07;17.90;64.20
20091;DHT22;10205;49.678;6.560;2022-09-25T10:00:40;17.90;64.30
20091;DHT22;10205;49.678;6.560;2022-09-25T10:03:13;17.90;64.30
20091;DHT22;10205;49.678;6.560;2022-09-25T10:05:46;17.90;64.80
20091;DHT22;10205;49.678;6.560;2022-09-25T10:08:15;17.90;64.60
20091;DHT22;10205;49.678;6.560;2022-09-25T10:10:45;17.90;63.70
20091;DHT22;10205;49.678;6.560;2022-09-25T10:13:18;17.90;63.90
20091;DHT22;10205;49.678;6.560;2022-09-25T10:15:49;18.00;63.20
20091;DHT22;10205;49.678;6.560;2022-09-25T10:18:24;18.00;64.30
20091;DHT22;10205;49.678;6.560;2022-09-25T10:20:58;18.00;64.90
20091;DHT22;10205;49.678;6.560;2022-09-25T10:23:34;17.90;64.00
20091;DHT22;10205;49.678;6.560;2022-09-25T10:26:22;17.90;64.10
20091;DHT22;10205;49.678;6.560;2022-09-25T10:28:54;17.90;64.00
20091;DHT22;10205;49.678;6.560;2022-09-25T10:31:24;17.90;63.60
20091;DHT22;10205;49.678;6.560;2022-09-25T10:34:18;17.80;64.60
20091;DHT22;10205;49.678;6.560;2022-09-25T10:36:50;17.80;65.90
20091;DHT22;10205;49.678;6.560;2022-09-25T10:39:25;17.80;64.80
20091;DHT22;10205;49.678;6.560;2022-09-25T10:41:55;17.80;65.30
20091;DHT22;10205;49.678;6.560;2022-09-25T10:44:29;17.80;64.30
20091;DHT22;10205;49.678;6.560;2022-09-25T10:47:28;17.70;65.30
20091;DHT22;10205;49.678;6.560;2022-09-25T10:50:19;17.70;65.30
20091;DHT22;10205;49.678;6.560;2022-09-25T10:52:49;17.60;64.40
20091;DHT22;10205;49.678;6.560;2022-09-25T10:55:23;17.60;64.80
20091;DHT22;10205;49.678;6.560;2022-09-25T10:57:57;17.60;64.60
20091;DHT22;10205;49.678;6.560;2022-09-25T11:00:41;17.60;64.70
20091;DHT22;10205;49.678;6.560;2022-09-25T11:03:16;17.60;64.50
20091;DHT22;10205;49.678;6.560;2022-09-25T11:05:49;17.60;64.50
20091;DHT22;10205;49.678;6.560;2022-09-25T11:08:22;17.50;64.80
20091;DHT22;10205;49.678;6.560;2022-09-25T11:10:53;17.50;64.80
20091;DHT22;10205;49.678;6.560;2022-09-25T11:13:23;17.50;65.40
20091;DHT22;10205;49.678;6.560;2022-09-25T11:15:55;17.50;65.30
20091;DHT22;10205;49.678;6.560;2022-09-25T11:18:39;17.50;65.30
20091;DHT22;10205;49.678;6.560;2022-09-25T11:21:27;17.40;65.40
20091;DHT22;10205;49.678;6.560;2022-09-25T11:24:07;17.40;65.40
20091;DHT22;10205;49.678;6.560;2022-09-25T11:26:44;17.30;65.00
20091;DHT22;10205;49.678;6.560;2022-09-25T11:29:21;17.40;65.30
20091;DHT22;10205;49.678;6.560;2022-09-25T11:31:57;17.40;65.70
20091;DHT22;10205;49.678;6.560;2022-09-25T11:34:55;17.40;65.40
20091;DHT22;10205;49.678;6.560;2022-09-25T11:37:36;17.40;65.50
20091;DHT22;10205;49.678;6.560;2022-09-25T11:40:23;17.40;65.30
20091;DHT22;10205;49.678;6.560;2022-09-25T11:43:22;17.40;65.00
20091;DHT22;10205;49.678;6.560;2022-09-25T11:46:01;17.40;65.30
20091;DHT22;10205;49.678;6.560;2022-09-25T11:48:39;17.40;65.00
20091;DHT22;10205;49.678;6.560;2022-09-25T11:51:26;17.40;64.50
20091;DHT22;10205;49.678;6.560;2022-09-25T11:54:16;17.40;64.40
20091;DHT22;10205;49.678;6.560;2022-09-25T11:56:56;17.40;63.70
20091;DHT22;10205;49.678;6.560;2022-09-25T11:59:39;17.40;63.90
20091;DHT22;10205;49.678;6.560;2022-09-25T12:02:29;17.40;63.30
20091;DHT22;10205;49.678;6.560;2022-09-25T12:05:33;17.40;62.80
20091;DHT22;10205;49.678;6.560;2022-09-25T12:08:20;17.40;62.30
20091;DHT22;10205;49.678;6.560;2022-09-25T12:11:04;17.40;62.50
20091;DHT22;10205;49.678;6.560;2022-09-25T12:13:43;17.40;62.40
20091;DHT22;10205;49.678;6.560;2022-09-25T12:16:21;17.50;62.50
20091;DHT22;10205;49.678;6.560;2022-09-25T12:19:19;17.50;62.30
20091;DHT22;10205;49.678;6.560;2022-09-25T12:22:02;17.40;61.90
20091;DHT22;10205;49.678;6.560;2022-09-25T12:24:50;17.50;62.30
20091;DHT22;10205;49.678;6.560;2022-09-25T12:27:34;17.50;62.30
20091;DHT22;10205;49.678;6.560;2022-09-25T12:30:16;17.50;61.90
20091;DHT22;10205;49.678;6.560;2022-09-25T12:33:19;17.50;61.40
20091;DHT22;10205;49.678;6.560;2022-09-25T12:35:56;17.50;61.30
20091;DHT22;10205;49.678;6.560;2022-09-25T12:38:34;17.50;61.40
20091;DHT22;10205;49.678;6.560;2022-09-25T12:41:17;17.50;60.90
20091;DHT22;10205;49.678;6.560;2022-09-25T12:43:53;17.60;61.20
20091;DHT22;10205;49.678;6.560;2022-09-25T12:46:29;17.60;61.40
20091;DHT22;10205;49.678;6.560;2022-09-25T12:49:09;17.60;61.90
20091;DHT22;10205;49.678;6.560;2022-09-25T12:51:40;17.60;61.70
20091;DHT22;10205;49.678;6.560;2022-09-25T12:54:21;17.60;61.80
20091;DHT22;10205;49.678;6.560;2022-09-25T12:56:56;17.60;62.00
20091;DHT22;10205;49.678;6.560;2022-09-25T12:59:31;17.70;61.90
20091;DHT22;10205;49.678;6.560;2022-09-25T13:02:09;17.70;61.60
20091;DHT22;10205;49.678;6.560;2022-09-25T13:04:51;17.70;61.60
20091;DHT22;10205;49.678;6.560;2022-09-25T13:07:30;17.70;61.90
20091;DHT22;10205;49.678;6.560;2022-09-25T13:10:03;17.70;61.50
20091;DHT22;10205;49.678;6.560;2022-09-25T13:12:45;17.80;61.30
20091;DHT22;10205;49.678;6.560;2022-09-25T13:15:18;17.80;61.20
20091;DHT22;10205;49.678;6.560;2022-09-25T13:17:48;17.90;60.70
20091;DHT22;10205;49.678;6.560;2022-09-25T13:20:47;17.90;60.60
20091;DHT22;10205;49.678;6.560;2022-09-25T13:23:28;17.90;60.60
20091;DHT22;10205;49.678;6.560;2022-09-25T13:26:00;17.90;60.70
20091;DHT22;10205;49.678;6.560;2022-09-25T13:28:37;17.90;60.50
20091;DHT22;10205;49.678;6.560;2022-09-25T13:31:12;17.90;60.60
20091;DHT22;10205;49.678;6.560;2022-09-25T13:33:50;17.90;60.30
20091;DHT22;10205;49.678;6.560;2022-09-25T13:36:31;18.00;60.30
20091;DHT22;10205;49.678;6.560;2022-09-25T13:39:03;18.00;60.10
20091;DHT22;10205;49.678;6.560;2022-09-25T13:41:53;18.00;60.50
20091;DHT22;10205;49.678;6.560;2022-09-25T13:48:03;18.00;60.90
20091;DHT22;10205;49.678;6.560;2022-09-25T13:50:37;18.10;60.00
20091;DHT22;10205;49.678;6.560;2022-09-25T13:53:25;18.10;60.00
20091;DHT22;10205;49.678;6.560;2022-09-25T13:56:23;18.10;60.00
20091;DHT22;10205;49.678;6.560;2022-09-25T13:59:20;18.20;59.80
20091;DHT22;10205;49.678;6.560;2022-09-25T14:01:57;18.20;60.10
20091;DHT22;10205;49.678;6.560;2022-09-25T14:04:50;18.20;59.80
20091;DHT22;10205;49.678;6.560;2022-09-25T14:07:20;18.30;59.90
20091;DHT22;10205;49.678;6.560;2022-09-25T14:09:52;18.30;59.80
20091;DHT22;10205;49.678;6.560;2022-09-25T14:12:29;18.30;59.60
20091;DHT22;10205;49.678;6.560;2022-09-25T14:15:06;18.30;60.30
20091;DHT22;10205;49.678;6.560;2022-09-25T14:17:41;18.40;60.10
20091;DHT22;10205;49.678;6.560;2022-09-25T14:20:33;18.40;59.60
20091;DHT22;10205;49.678;6.560;2022-09-25T14:23:09;18.40;59.20
20091;DHT22;10205;49.678;6.560;2022-09-25T14:25:39;18.40;59.20
20091;DHT22;10205;49.678;6.560;2022-09-25T14:28:21;18.50;59.10
20091;DHT22;10205;49.678;6.560;2022-09-25T14:31:05;18.50;59.60
20091;DHT22;10205;49.678;6.560;2022-09-25T14:34:10;18.50;58.50
20091;DHT22;10205;49.678;6.560;2022-09-25T14:37:06;18.50;58.60
20091;DHT22;10205;49.678;6.560;2022-09-25T14:39:48;18.60;58.60
20091;DHT22;10205;49.678;6.560;2022-09-25T14:45:50;18.60;58.60
20091;DHT22;10205;49.678;6.560;2022-09-25T14:48:27;18.70;58.60
20091;DHT22;10205;49.678;6.560;2022-09-25T14:51:00;18.70;58.80
20091;DHT22;10205;49.678;6.560;2022-09-25T14:53:35;18.70;58.80
20091;DHT22;10205;49.678;6.560;2022-09-25T14:56:07;18.80;58.90
20091;DHT22;10205;49.678;6.560;2022-09-25T14:58:42;18.80;58.80
20091;DHT22;10205;49.678;6.560;2022-09-25T15:01:15;18.80;58.70
20091;DHT22;10205;49.678;6.560;2022-09-25T15:03:50;18.80;58.40
20091;DHT22;10205;49.678;6.560;2022-09-25T15:06:24;18.90;58.50
20091;DHT22;10205;49.678;6.560;2022-09-25T15:08:54;18.90;58.40
20091;DHT22;10205;49.678;6.560;2022-09-25T15:11:24;18.90;58.30
20091;DHT22;10205;49.678;6.560;2022-09-25T15:14:06;18.90;58.50
20091;DHT22;10205;49.678;6.560;2022-09-25T15:16:36;19.00;58.60
20091;DHT22;10205;49.678;6.560;2022-09-25T15:19:25;19.00;58.60
20091;DHT22;10205;49.678;6.560;2022-09-25T15:21:55;19.00;58.20
20091;DHT22;10205;49.678;6.560;2022-09-25T15:24:26;19.00;58.30
20091;DHT22;10205;49.678;6.560;2022-09-25T15:26:58;19.10;58.10
20091;DHT22;10205;49.678;6.560;2022-09-25T15:29:29;19.10;58.20
20091;DHT22;10205;49.678;6.560;2022-09-25T15:32:01;19.10;58.00
20091;DHT22;10205;49.678;6.560;2022-09-25T15:34:31;19.10;58.10
20091;DHT22;10205;49.678;6.560;2022-09-25T15:37:17;19.10;58.00
20091;DHT22;10205;49.678;6.560;2022-09-25T15:39:52;19.10;57.70
20091;DHT22;10205;49.678;6.560;2022-09-25T15:42:20;19.10;57.90
20091;DHT22;10205;49.678;6.560;2022-09-25T15:44:48;19.20;58.00
20091;DHT22;10205;49.678;6.560;2022-09-25T15:47:47;19.20;57.90
20091;DHT22;10205;49.678;6.560;2022-09-25T15:50:22;19.10;57.40
20091;DHT22;10205;49.678;6.560;2022-09-25T15:52:53;19.20;57.70
20091;DHT22;10205;49.678;6.560;2022-09-25T15:55:24;19.20;57.60
20091;DHT22;10205;49.678;6.560;2022-09-25T15:58:03;19.20;57.70
20091;DHT22;10205;49.678;6.560;2022-09-25T16:00:33;19.20;57.60
20091;DHT22;10205;49.678;6.560;2022-09-25T16:03:20;19.20;57.80
20091;DHT22;10205;49.678;6.560;2022-09-25T16:06:12;19.20;58.20
20091;DHT22;10205;49.678;6.560;2022-09-25T16:08:41;19.20;57.40
20091;DHT22;10205;49.678;6.560;2022-09-25T16:11:20;19.20;57.80
20091;DHT22;10205;49.678;6.560;2022-09-25T16:13:51;19.20;57.60
20091;DHT22;10205;49.678;6.560;2022-09-25T16:16:22;19.20;57.60
20091;DHT22;10205;49.678;6.560;2022-09-25T16:18:54;19.20;58.20
20091;DHT22;10205;49.678;6.560;2022-09-25T16:21:25;19.20;57.70